createdAt,value
2018-12-19T00:01:17.875Z,31.17
2018-12-19T00:03:45.412Z,30.00
2018-12-19T00:06:12.967Z,30.00
2018-12-19T00:08:40.471Z,31.17
2018-12-19T00:11:07.967Z,31.00
2018-12-19T00:13:35.561Z,31.13
2018-12-19T00:16:03.065Z,28.77
2018-12-19T00:18:30.559Z,31.50
2018-12-19T00:20:58.060Z,30.97
2018-12-19T00:23:25.562Z,30.10
2018-12-19T00:25:53.051Z,30.23
2018-12-19T00:28:20.551Z,30.40
2018-12-19T00:30:48.053Z,28.57
2018-12-19T00:33:15.573Z,29.67
2018-12-19T00:35:43.074Z,28.93
2018-12-19T00:38:10.580Z,30.03
2018-12-19T00:40:38.072Z,25.73
2018-12-19T00:43:05.567Z,26.60
2018-12-19T00:45:33.063Z,24.13
2018-12-19T00:48:00.542Z,23.07
2018-12-19T00:50:28.056Z,22.33
2018-12-19T00:52:55.549Z,23.20
2018-12-19T00:55:23.133Z,23.03
2018-12-19T00:57:50.635Z,21.90
2018-12-19T01:00:18.129Z,22.53
2018-12-19T01:02:45.630Z,23.47
2018-12-19T01:05:13.192Z,23.43
2018-12-19T01:07:40.687Z,23.47
2018-12-19T01:10:08.167Z,23.77
2018-12-19T01:12:35.659Z,24.20
2018-12-19T01:15:03.355Z,22.73
2018-12-19T01:17:30.951Z,22.60
2018-12-19T01:19:58.991Z,21.90
2018-12-19T01:22:26.496Z,21.60
2018-12-19T01:24:54.005Z,22.60
2018-12-19T01:27:21.518Z,21.93
2018-12-19T01:29:49.020Z,21.53
2018-12-19T01:32:16.513Z,21.10
2018-12-19T01:34:44.005Z,22.53
2018-12-19T01:37:11.500Z,22.10
2018-12-19T01:39:38.995Z,20.73
2018-12-19T01:42:06.487Z,21.23
2018-12-19T01:44:33.971Z,21.50
2018-12-19T01:47:01.462Z,22.17
2018-12-19T01:49:29.091Z,22.60
2018-12-19T01:51:56.580Z,20.17
2018-12-19T01:54:24.067Z,21.40
2018-12-19T01:56:51.575Z,21.90
2018-12-19T01:59:19.063Z,20.57
2018-12-19T02:01:46.564Z,21.33
2018-12-19T02:04:14.055Z,21.73
2018-12-19T02:06:41.554Z,21.93
2018-12-19T02:09:09.055Z,22.23
2018-12-19T02:11:36.575Z,23.03
2018-12-19T02:14:04.222Z,23.40
2018-12-19T02:16:31.715Z,23.60
2018-12-19T02:18:59.218Z,24.53
2018-12-19T02:21:26.704Z,24.20
2018-12-19T02:23:54.274Z,22.40
2018-12-19T02:26:21.807Z,21.80
2018-12-19T02:28:49.330Z,22.57
2018-12-19T02:31:16.834Z,23.27
2018-12-19T02:33:44.474Z,21.30
2018-12-19T02:36:12.049Z,22.57
2018-12-19T02:38:39.539Z,22.93
2018-12-19T02:41:07.037Z,23.77
2018-12-19T02:43:34.586Z,22.67
2018-12-19T02:46:02.227Z,22.47
2018-12-19T02:48:30.283Z,22.37
2018-12-19T02:50:57.773Z,22.40
2018-12-19T02:53:25.285Z,21.07
2018-12-19T02:55:52.850Z,20.43
2018-12-19T02:58:20.353Z,20.70
2018-12-19T03:00:47.855Z,18.87
2018-12-19T03:03:15.396Z,18.90
2018-12-19T03:05:42.890Z,18.83
2018-12-19T03:08:10.378Z,18.07
2018-12-19T03:10:37.871Z,16.20
2018-12-19T03:13:05.410Z,16.57
2018-12-19T03:15:32.994Z,16.00
2018-12-19T03:18:00.772Z,16.13
2018-12-19T03:20:28.275Z,16.23
2018-12-19T03:22:55.770Z,16.70
2018-12-19T03:25:23.270Z,15.93
2018-12-19T03:27:50.760Z,16.00
2018-12-19T03:30:18.256Z,16.07
2018-12-19T03:32:45.780Z,16.47
2018-12-19T03:35:13.358Z,15.80
2018-12-19T03:37:40.847Z,15.40
2018-12-19T03:40:08.351Z,15.10
2018-12-19T03:42:35.831Z,15.43
2018-12-19T03:45:04.100Z,14.20
2018-12-19T03:47:31.679Z,14.80
2018-12-19T03:50:00.090Z,14.97
2018-12-19T03:52:27.606Z,14.47
2018-12-19T03:54:55.190Z,14.80
2018-12-19T03:57:22.963Z,14.53
2018-12-19T03:59:50.450Z,12.70
2018-12-19T04:02:17.947Z,13.13
2018-12-19T04:04:45.447Z,13.50
2018-12-19T04:07:12.947Z,13.00
2018-12-19T04:09:40.533Z,13.87
2018-12-19T04:12:08.110Z,13.80
2018-12-19T04:14:35.841Z,13.60
2018-12-19T04:17:03.407Z,14.37
2018-12-19T04:19:30.909Z,14.80
2018-12-19T04:21:58.452Z,14.57
2018-12-19T04:24:25.943Z,15.17
2018-12-19T04:26:53.431Z,14.97
2018-12-19T04:29:20.973Z,15.10
2018-12-19T04:31:48.587Z,15.50
2018-12-19T04:34:16.093Z,15.07
2018-12-19T04:36:43.585Z,14.53
2018-12-19T04:39:11.081Z,15.13
2018-12-19T04:41:38.724Z,14.90
2018-12-19T04:44:06.406Z,13.73
2018-12-19T04:46:33.902Z,13.97
2018-12-19T04:49:01.399Z,14.00
2018-12-19T04:51:28.911Z,13.83
2018-12-19T04:53:56.413Z,14.10
2018-12-19T04:56:23.926Z,12.80
2018-12-19T04:58:51.429Z,13.37
2018-12-19T05:01:18.924Z,14.10
2018-12-19T05:03:46.410Z,14.13
2018-12-19T05:06:13.991Z,17.03
2018-12-19T05:08:41.474Z,16.13
2018-12-19T05:11:08.983Z,16.43
2018-12-19T05:13:36.478Z,17.33
2018-12-19T05:16:04.015Z,16.90
2018-12-19T05:18:31.507Z,15.73
2018-12-19T05:20:59.027Z,18.40
2018-12-19T05:23:26.508Z,17.20
2018-12-19T05:25:53.993Z,18.17
2018-12-19T05:28:21.502Z,16.60
2018-12-19T05:30:49.002Z,15.47
2018-12-19T05:33:16.511Z,14.93
2018-12-19T05:35:44.015Z,15.50
2018-12-19T05:38:11.511Z,14.17
2018-12-19T05:40:39.024Z,14.37
2018-12-19T05:43:06.519Z,14.17
2018-12-19T05:45:34.011Z,14.13
2018-12-19T05:48:01.507Z,13.50
2018-12-19T05:50:29.401Z,13.67
2018-12-19T05:52:56.906Z,12.40
2018-12-19T05:55:24.403Z,13.93
2018-12-19T05:57:51.915Z,13.20
2018-12-19T06:00:19.714Z,13.03
2018-12-19T06:02:47.226Z,12.90
2018-12-19T06:05:14.831Z,12.73
2018-12-19T06:07:43.643Z,12.80
2018-12-19T06:10:11.326Z,13.13
2018-12-19T06:12:38.813Z,13.27
2018-12-19T06:15:06.479Z,12.97
2018-12-19T06:17:33.976Z,13.47
2018-12-19T06:20:01.485Z,14.20
2018-12-19T06:22:28.968Z,14.37
2018-12-19T06:24:56.472Z,13.87
2018-12-19T06:27:23.978Z,13.67
2018-12-19T06:29:51.471Z,14.47
2018-12-19T06:32:18.969Z,13.87
2018-12-19T06:34:46.476Z,16.10
2018-12-19T06:37:13.979Z,15.20
2018-12-19T06:39:41.992Z,16.20
2018-12-19T06:42:09.475Z,15.97
2018-12-19T06:44:36.970Z,15.20
2018-12-19T06:47:04.471Z,14.90
2018-12-19T06:49:31.967Z,14.97
2018-12-19T06:51:59.478Z,15.13
2018-12-19T06:54:26.974Z,15.37
2018-12-19T06:56:54.477Z,14.83
2018-12-19T06:59:21.982Z,15.30
2018-12-19T07:01:49.471Z,15.33
2018-12-19T07:04:16.983Z,15.57
2018-12-19T07:06:44.477Z,15.27
2018-12-19T07:09:12.058Z,15.07
2018-12-19T07:11:39.546Z,15.40
2018-12-19T07:14:07.043Z,15.40
2018-12-19T07:16:34.534Z,14.83
2018-12-19T07:19:02.029Z,14.77
2018-12-19T07:21:29.526Z,14.43
2018-12-19T07:23:57.114Z,14.23
2018-12-19T07:26:24.617Z,15.00
2018-12-19T07:28:52.106Z,15.17
2018-12-19T07:31:19.619Z,13.17
2018-12-19T07:33:47.119Z,14.63
2018-12-19T07:36:14.620Z,13.50
2018-12-19T07:38:42.111Z,13.87
2018-12-19T07:41:09.614Z,13.90
2018-12-19T07:43:37.135Z,13.17
2018-12-19T07:46:04.632Z,12.77
2018-12-19T07:48:32.402Z,12.97
2018-12-19T07:50:59.890Z,13.07
2018-12-19T07:53:27.387Z,12.53
2018-12-19T07:55:55.362Z,12.20
2018-12-19T07:58:22.856Z,12.67
2018-12-19T08:00:50.365Z,11.40
2018-12-19T08:03:17.862Z,11.90
2018-12-19T08:05:45.357Z,11.57
2018-12-19T08:08:12.851Z,11.83
2018-12-19T08:10:40.352Z,11.03
2018-12-19T08:13:07.846Z,10.87
2018-12-19T08:15:35.334Z,11.17
2018-12-19T08:18:02.835Z,10.53
2018-12-19T08:20:30.340Z,10.67
2018-12-19T08:22:57.834Z,10.77
2018-12-19T08:25:25.336Z,10.07
2018-12-19T08:27:52.831Z,10.30
2018-12-19T08:30:20.397Z,10.27
2018-12-19T08:32:47.888Z,9.70
2018-12-19T08:35:15.387Z,10.00
2018-12-19T08:37:43.279Z,9.37
2018-12-19T08:40:10.779Z,9.60
2018-12-19T08:42:38.262Z,9.33
2018-12-19T08:45:05.848Z,9.60
2018-12-19T08:47:33.419Z,8.73
2018-12-19T08:50:00.937Z,9.90
2018-12-19T08:52:28.437Z,9.83
2018-12-19T08:54:55.953Z,9.93
2018-12-19T08:57:23.457Z,9.33
2018-12-19T08:59:50.955Z,9.30
2018-12-19T09:02:18.481Z,9.57
2018-12-19T09:04:46.120Z,9.23
2018-12-19T09:07:13.623Z,9.50
2018-12-19T09:09:41.104Z,9.83
2018-12-19T09:12:08.643Z,10.17
2018-12-19T09:14:36.139Z,9.80
2018-12-19T09:17:03.917Z,10.37
2018-12-19T09:19:31.486Z,10.30
2018-12-19T09:21:59.356Z,10.47
2018-12-19T09:24:26.859Z,10.80
2018-12-19T09:26:54.360Z,11.67
2018-12-19T09:29:21.854Z,11.90
2018-12-19T09:31:49.344Z,12.47
2018-12-19T09:34:16.873Z,13.93
2018-12-19T09:36:44.375Z,13.10
2018-12-19T09:39:11.868Z,13.63
2018-12-19T09:41:39.440Z,15.43
2018-12-19T09:44:06.922Z,14.43
2018-12-19T09:46:34.428Z,14.17
2018-12-19T09:49:01.921Z,14.57
2018-12-19T09:51:29.428Z,14.77
2018-12-19T09:53:56.917Z,14.70
2018-12-19T09:56:24.428Z,15.00
2018-12-19T09:58:51.920Z,14.97
2018-12-19T10:01:19.414Z,14.77
2018-12-19T10:03:46.909Z,15.63
2018-12-19T10:06:14.428Z,16.10
2018-12-19T10:08:41.915Z,15.03
2018-12-19T10:11:09.407Z,16.53
2018-12-19T10:13:36.979Z,17.30
2018-12-19T10:16:04.557Z,15.93
2018-12-19T10:18:32.053Z,16.63
2018-12-19T10:20:59.546Z,16.67
2018-12-19T10:23:27.308Z,16.17
2018-12-19T10:26:00.494Z,16.03
2018-12-19T10:28:34.566Z,16.43
2018-12-19T10:31:02.272Z,16.57
2018-12-19T10:33:29.779Z,16.77
2018-12-19T10:35:57.364Z,16.33
2018-12-19T10:38:24.862Z,16.77
2018-12-19T10:40:52.385Z,16.33
2018-12-19T10:43:19.875Z,16.73
2018-12-19T10:45:47.377Z,16.33
2018-12-19T10:48:14.876Z,17.63
2018-12-19T10:50:42.391Z,15.93
2018-12-19T10:53:09.896Z,16.40
2018-12-19T10:55:37.421Z,16.37
2018-12-19T10:58:04.927Z,17.60
2018-12-19T11:00:38.294Z,16.80
2018-12-19T11:03:05.801Z,17.43
2018-12-19T11:05:34.197Z,16.87
2018-12-19T11:08:01.713Z,16.17
2018-12-19T11:10:29.258Z,18.00
2018-12-19T11:12:56.800Z,17.13
2018-12-19T11:15:24.307Z,17.30
2018-12-19T11:17:51.803Z,16.87
2018-12-19T11:20:19.314Z,17.40
2018-12-19T11:22:46.805Z,18.13
2018-12-19T11:25:14.385Z,17.67
2018-12-19T11:27:41.886Z,17.13
2018-12-19T11:30:09.545Z,18.27
2018-12-19T11:32:37.044Z,18.93
2018-12-19T11:35:05.110Z,19.23
2018-12-19T11:37:32.610Z,18.77
2018-12-19T11:40:00.117Z,18.73
2018-12-19T11:42:27.619Z,18.87
2018-12-19T11:44:55.146Z,19.37
2018-12-19T11:47:22.645Z,19.50
2018-12-19T11:49:50.144Z,18.53
2018-12-19T11:52:17.642Z,19.03
2018-12-19T11:54:45.193Z,18.77
2018-12-19T11:57:12.958Z,18.37
2018-12-19T11:59:40.452Z,19.47
2018-12-19T12:02:07.941Z,19.37
2018-12-19T12:04:35.452Z,19.13
2018-12-19T12:07:03.024Z,19.40
2018-12-19T12:09:30.517Z,19.80
2018-12-19T12:11:58.022Z,19.70
2018-12-19T12:14:25.526Z,19.53
2018-12-19T12:16:53.024Z,19.63
2018-12-19T12:19:20.529Z,19.57
2018-12-19T12:21:48.033Z,20.40
2018-12-19T12:24:15.517Z,19.60
2018-12-19T12:26:43.032Z,19.47
2018-12-19T12:29:10.540Z,20.33
2018-12-19T12:31:38.033Z,19.83
2018-12-19T12:34:05.527Z,19.87
2018-12-19T12:36:33.029Z,20.00
2018-12-19T12:39:00.519Z,20.67
2018-12-19T12:41:28.968Z,21.90
2018-12-19T12:43:56.750Z,19.80
2018-12-19T12:46:24.253Z,19.67
2018-12-19T12:48:51.747Z,19.33
2018-12-19T12:51:19.256Z,19.93
2018-12-19T12:53:46.846Z,19.93
2018-12-19T12:56:14.341Z,20.47
2018-12-19T12:58:41.830Z,19.27
2018-12-19T13:01:09.319Z,19.33
2018-12-19T13:03:36.813Z,19.60
2018-12-19T13:06:04.357Z,20.27
2018-12-19T13:08:31.851Z,19.80
2018-12-19T13:10:59.348Z,20.53
2018-12-19T13:13:26.835Z,21.20
2018-12-19T13:15:54.346Z,21.03
2018-12-19T13:18:21.948Z,20.70
2018-12-19T13:20:49.455Z,19.73
2018-12-19T13:23:16.948Z,21.23
2018-12-19T13:25:44.612Z,21.83
2018-12-19T13:28:12.169Z,21.37
2018-12-19T13:30:39.654Z,21.97
2018-12-19T13:33:07.158Z,21.67
2018-12-19T13:35:34.646Z,21.47
2018-12-19T13:38:02.223Z,21.57
2018-12-19T13:40:29.712Z,21.80
2018-12-19T13:42:57.257Z,21.47
2018-12-19T13:45:24.820Z,21.03
2018-12-19T13:47:52.311Z,21.50
2018-12-19T13:50:19.813Z,21.93
2018-12-19T13:52:47.315Z,21.93
2018-12-19T13:55:14.810Z,22.63
2018-12-19T13:57:42.319Z,21.73
2018-12-19T14:00:09.975Z,23.07
2018-12-19T14:02:37.600Z,21.80
2018-12-19T14:05:05.264Z,22.90
2018-12-19T14:07:32.763Z,23.17
2018-12-19T14:10:00.353Z,23.47
2018-12-19T14:12:27.845Z,22.30
2018-12-19T14:14:55.341Z,22.37
2018-12-19T14:17:22.840Z,23.63
2018-12-19T14:19:50.336Z,24.10
2018-12-19T14:22:17.834Z,23.40
2018-12-19T14:24:45.334Z,24.20
2018-12-19T14:27:12.862Z,23.83
2018-12-19T14:29:40.365Z,24.80
2018-12-19T14:32:07.861Z,24.27
2018-12-19T14:34:35.376Z,24.23
2018-12-19T14:37:02.874Z,24.03
2018-12-19T14:39:30.577Z,24.37
2018-12-19T14:41:58.081Z,24.63
2018-12-19T14:44:25.584Z,25.30
2018-12-19T14:46:53.107Z,26.20
2018-12-19T14:49:20.595Z,24.87
2018-12-19T14:51:48.143Z,25.70
2018-12-19T14:54:15.644Z,25.93
2018-12-19T14:56:43.193Z,26.00
2018-12-19T14:59:10.695Z,26.00
2018-12-19T15:01:38.203Z,27.27
2018-12-19T15:04:05.715Z,25.90
2018-12-19T15:06:33.344Z,26.10
2018-12-19T15:09:01.042Z,26.47
2018-12-19T15:11:28.541Z,27.60
2018-12-19T15:13:56.056Z,26.17
2018-12-19T15:16:23.631Z,27.00
2018-12-19T15:18:51.113Z,26.27
2018-12-19T15:21:18.614Z,27.77
2018-12-19T15:23:46.238Z,26.97
2018-12-19T15:26:13.744Z,26.63
2018-12-19T15:28:41.231Z,27.13
2018-12-19T15:31:08.732Z,26.87
2018-12-19T15:33:36.233Z,27.30
2018-12-19T15:36:04.030Z,27.07
2018-12-19T15:38:31.545Z,27.20
2018-12-19T15:40:59.055Z,27.50
2018-12-19T15:43:26.564Z,26.90
2018-12-19T15:45:54.076Z,28.13
2018-12-19T15:48:21.591Z,28.67
2018-12-19T15:50:49.115Z,28.57
2018-12-19T15:53:16.624Z,27.27
2018-12-19T15:55:44.131Z,28.50
2018-12-19T15:58:11.653Z,28.90
2018-12-19T16:00:39.239Z,29.23
2018-12-19T16:03:06.821Z,29.57
2018-12-19T16:05:34.329Z,30.13
2018-12-19T16:08:01.904Z,30.60
2018-12-19T16:10:29.408Z,29.80
2018-12-19T16:12:56.912Z,30.93
2018-12-19T16:15:24.438Z,30.30
2018-12-19T16:17:51.943Z,30.40
2018-12-19T16:20:19.452Z,30.73
2018-12-19T16:22:46.958Z,31.07
2018-12-19T16:25:14.460Z,31.27
2018-12-19T16:27:42.053Z,31.73
2018-12-19T16:30:09.707Z,32.63
2018-12-19T16:32:37.219Z,31.63
2018-12-19T16:35:05.213Z,33.63
2018-12-19T16:37:32.711Z,31.47
2018-12-19T16:40:00.205Z,32.57
2018-12-19T16:42:27.741Z,32.20
2018-12-19T16:44:55.252Z,31.80
2018-12-19T16:47:22.746Z,32.70
2018-12-19T16:49:50.251Z,33.67
2018-12-19T16:52:17.757Z,34.13
2018-12-19T16:54:45.253Z,33.67
2018-12-19T16:57:12.760Z,32.53
2018-12-19T16:59:40.267Z,33.73
2018-12-19T17:02:07.782Z,33.83
2018-12-19T17:04:35.369Z,33.43
2018-12-19T17:07:02.981Z,33.30
2018-12-19T17:09:30.574Z,34.57
2018-12-19T17:11:58.667Z,35.23
2018-12-19T17:14:27.865Z,35.50
2018-12-19T17:16:55.372Z,35.60
2018-12-19T17:19:22.880Z,33.63
2018-12-19T17:21:50.387Z,34.60
2018-12-19T17:24:17.918Z,35.50
2018-12-19T17:26:45.410Z,35.90
2018-12-19T17:29:13.061Z,37.03
2018-12-19T17:31:40.575Z,36.97
2018-12-19T17:34:08.425Z,35.83
2018-12-19T17:36:35.923Z,36.07
2018-12-19T17:39:05.975Z,34.77
2018-12-19T17:41:33.504Z,36.27
2018-12-19T17:44:01.287Z,37.20
2018-12-19T17:46:28.863Z,37.87
2018-12-19T17:48:56.692Z,35.97
2018-12-19T17:51:24.543Z,35.20
2018-12-19T17:53:52.042Z,36.87
2018-12-19T17:56:19.559Z,37.27
2018-12-19T17:58:47.413Z,35.63
2018-12-19T18:01:14.914Z,36.50
2018-12-19T18:03:42.421Z,37.03
2018-12-19T18:06:09.923Z,36.63
2018-12-19T18:08:37.453Z,36.00
2018-12-19T18:11:04.974Z,35.63
2018-12-19T18:13:33.017Z,36.30
2018-12-19T18:16:00.615Z,36.90
2018-12-19T18:18:28.163Z,37.83
2018-12-19T18:20:55.686Z,35.83
2018-12-19T18:23:23.187Z,36.67
2018-12-19T18:25:50.700Z,35.97
2018-12-19T18:28:18.280Z,35.47
2018-12-19T18:30:45.774Z,36.90
2018-12-19T18:33:13.295Z,35.10
2018-12-19T18:35:40.797Z,35.93
2018-12-19T18:38:08.297Z,35.13
2018-12-19T18:40:35.831Z,37.07
2018-12-19T18:43:03.350Z,35.17
2018-12-19T18:45:30.846Z,36.63
2018-12-19T18:47:58.353Z,35.50
2018-12-19T18:50:25.861Z,35.73
2018-12-19T18:52:53.364Z,37.30
2018-12-19T18:55:20.886Z,35.70
2018-12-19T18:57:48.668Z,35.00
2018-12-19T19:00:18.168Z,36.60
2018-12-19T19:02:45.685Z,33.63
2018-12-19T19:05:13.264Z,34.77
2018-12-19T19:07:40.786Z,37.03
2018-12-19T19:10:08.282Z,36.47
2018-12-19T19:12:35.816Z,37.20
2018-12-19T19:15:03.416Z,36.77
2018-12-19T19:17:30.928Z,36.67
2018-12-19T19:19:58.438Z,36.53
2018-12-19T19:22:26.884Z,38.33
2018-12-19T19:24:54.385Z,38.83
2018-12-19T19:27:22.103Z,37.20
2018-12-19T19:29:49.847Z,37.63
2018-12-19T19:32:18.725Z,37.50
2018-12-19T19:34:46.507Z,38.03
2018-12-19T19:37:14.018Z,37.87
2018-12-19T19:39:41.596Z,39.00
2018-12-19T19:42:09.107Z,38.57
2018-12-19T19:44:36.623Z,36.60
2018-12-19T19:47:04.210Z,37.93
2018-12-19T19:49:31.716Z,38.93
2018-12-19T19:51:59.231Z,39.53
2018-12-19T19:54:26.729Z,39.63
2018-12-19T19:56:54.243Z,40.30
2018-12-19T19:59:21.749Z,39.33
2018-12-19T20:01:49.803Z,40.70
2018-12-19T20:04:17.304Z,41.63
2018-12-19T20:06:44.818Z,40.37
2018-12-19T20:09:12.355Z,40.27
2018-12-19T20:11:39.873Z,39.20
2018-12-19T20:14:07.406Z,41.07
2018-12-19T20:16:36.895Z,41.60
2018-12-19T20:19:04.391Z,40.40
2018-12-19T20:21:31.908Z,40.33
2018-12-19T20:23:59.411Z,41.87
2018-12-19T20:26:26.902Z,41.67
2018-12-19T20:28:54.403Z,41.47
2018-12-19T20:31:21.911Z,41.53
2018-12-19T20:33:49.881Z,41.53
2018-12-19T20:36:17.386Z,37.50
2018-12-19T20:38:44.970Z,35.67
2018-12-19T20:41:12.469Z,36.10
2018-12-19T20:43:40.268Z,33.60
2018-12-19T20:46:07.880Z,36.37
2018-12-19T20:48:35.386Z,36.33
2018-12-19T20:51:02.991Z,36.73
2018-12-19T20:53:30.992Z,37.57
2018-12-19T20:56:03.684Z,36.30
2018-12-19T20:58:28.044Z,36.83
2018-12-19T21:00:55.711Z,34.70
2018-12-19T21:03:23.215Z,35.00
2018-12-19T21:05:51.270Z,35.90
2018-12-19T21:08:18.827Z,34.13
2018-12-19T21:10:46.367Z,33.30
2018-12-19T21:13:13.881Z,28.97
2018-12-19T21:15:41.371Z,29.70
2018-12-19T21:18:14.570Z,28.20
2018-12-19T21:20:42.134Z,26.80
2018-12-19T21:23:09.646Z,29.43
2018-12-19T21:25:37.153Z,28.87
2018-12-19T21:28:04.750Z,28.53
2018-12-19T21:30:32.261Z,26.30
2018-12-19T21:32:59.824Z,26.97
2018-12-19T21:35:27.320Z,26.57
2018-12-19T21:37:54.858Z,25.37
2018-12-19T21:40:22.518Z,26.43
2018-12-19T21:42:50.075Z,25.07
2018-12-19T21:45:17.995Z,25.80
2018-12-19T21:47:45.589Z,25.20
2018-12-19T21:50:13.101Z,26.03
2018-12-19T21:52:40.892Z,25.40
2018-12-19T21:55:08.409Z,25.00
2018-12-19T21:57:35.908Z,25.33
2018-12-19T22:00:04.087Z,25.77
2018-12-19T22:02:31.592Z,23.93
2018-12-19T22:04:59.297Z,25.53
2018-12-19T22:07:26.889Z,23.70
2018-12-19T22:09:54.392Z,24.57
2018-12-19T22:12:21.944Z,24.90
2018-12-19T22:14:49.573Z,23.87
2018-12-19T22:20:27.986Z,22.87
2018-12-19T22:22:55.731Z,23.33
2018-12-19T22:25:23.304Z,22.07
2018-12-19T22:27:50.873Z,23.07
2018-12-19T22:30:18.436Z,22.23
2018-12-19T22:32:46.130Z,22.40
2018-12-19T22:35:13.771Z,21.43
2018-12-19T22:37:41.373Z,22.70
2018-12-19T22:40:09.259Z,20.03
2018-12-19T22:42:36.859Z,20.23
2018-12-19T22:45:04.914Z,21.70
2018-12-19T22:47:32.519Z,20.80
2018-12-19T22:50:00.040Z,20.33
2018-12-19T22:52:27.566Z,20.00
2018-12-19T22:54:55.973Z,19.17
2018-12-19T22:57:23.586Z,19.63
2018-12-19T22:59:51.168Z,18.33
2018-12-19T23:02:24.398Z,17.93
2018-12-19T23:04:52.221Z,17.13
2018-12-19T23:07:19.785Z,17.67
2018-12-19T23:09:47.347Z,16.50
2018-12-19T23:12:14.868Z,16.63
2018-12-19T23:14:42.520Z,16.27
2018-12-19T23:20:09.865Z,15.17
2018-12-19T23:22:37.516Z,14.17
2018-12-19T23:25:05.506Z,14.73
2018-12-19T23:27:33.175Z,14.40
2018-12-19T23:30:00.905Z,14.57
2018-12-19T23:32:28.696Z,14.20
2018-12-19T23:34:56.314Z,14.07
2018-12-19T23:37:23.837Z,15.50
2018-12-19T23:39:51.929Z,15.27
2018-12-19T23:42:19.607Z,14.87
2018-12-19T23:44:47.224Z,14.00
2018-12-19T23:47:14.901Z,14.87
2018-12-19T23:49:42.477Z,14.67
2018-12-19T23:52:10.088Z,14.67
2018-12-19T23:54:37.698Z,13.97
2018-12-19T23:57:05.305Z,14.43
2018-12-19T23:59:32.901Z,14.13
